sensor_id;sensor_type;location;lat;lon;timestamp;P1;durP1;ratioP1;P2;durP2;ratioP2
53439;SDS011;39333;47.044;15.080;2022-07-12T00:01:50;54.85;;;52.28;;
53439;SDS011;39333;47.044;15.080;2022-07-12T00:04:17;57.05;;;54.53;;
53439;SDS011;39333;47.044;15.080;2022-07-12T00:06:44;57.30;;;54.80;;
53439;SDS011;39333;47.044;15.080;2022-07-12T00:09:10;57.38;;;54.80;;
53439;SDS011;39333;47.044;15.080;2022-07-12T00:11:37;54.42;;;51.60;;
53439;SDS011;39333;47.044;15.080;2022-07-12T00:14:04;56.63;;;54.13;;
53439;SDS011;39333;47.044;15.080;2022-07-12T00:16:32;55.28;;;52.80;;
53439;SDS011;39333;47.044;15.080;2022-07-12T00:18:58;58.65;;;55.83;;
53439;SDS011;39333;47.044;15.080;2022-07-12T00:21:25;59.40;;;56.63;;
53439;SDS011;39333;47.044;15.080;2022-07-12T00:23:52;54.88;;;52.58;;
53439;SDS011;39333;47.044;15.080;2022-07-12T00:26:19;53.53;;;51.13;;
53439;SDS011;39333;47.044;15.080;2022-07-12T00:28:46;58.75;;;55.95;;
53439;SDS011;39333;47.044;15.080;2022-07-12T00:31:14;55.08;;;52.60;;
53439;SDS011;39333;47.044;15.080;2022-07-12T00:33:41;53.58;;;51.13;;
53439;SDS011;39333;47.044;15.080;2022-07-12T00:36:08;53.92;;;51.42;;
53439;SDS011;39333;47.044;15.080;2022-07-12T00:38:35;55.13;;;52.63;;
53439;SDS011;39333;47.044;15.080;2022-07-12T00:41:01;52.88;;;50.42;;
53439;SDS011;39333;47.044;15.080;2022-07-12T00:43:28;54.60;;;52.20;;
53439;SDS011;39333;47.044;15.080;2022-07-12T00:45:55;58.65;;;55.50;;
53439;SDS011;39333;47.044;15.080;2022-07-12T00:48:22;56.28;;;53.78;;
53439;SDS011;39333;47.044;15.080;2022-07-12T00:50:49;52.95;;;50.53;;
53439;SDS011;39333;47.044;15.080;2022-07-12T00:53:15;59.10;;;56.33;;
53439;SDS011;39333;47.044;15.080;2022-07-12T00:55:44;53.40;;;50.88;;
53439;SDS011;39333;47.044;15.080;2022-07-12T00:58:12;54.40;;;51.90;;
53439;SDS011;39333;47.044;15.080;2022-07-12T01:00:38;59.97;;;57.28;;
53439;SDS011;39333;47.044;15.080;2022-07-12T01:03:05;55.53;;;52.85;;
53439;SDS011;39333;47.044;15.080;2022-07-12T01:05:32;57.05;;;54.53;;
53439;SDS011;39333;47.044;15.080;2022-07-12T01:08:00;54.55;;;52.17;;
53439;SDS011;39333;47.044;15.080;2022-07-12T01:10:27;53.53;;;51.22;;
53439;SDS011;39333;47.044;15.080;2022-07-12T01:12:56;57.10;;;54.25;;
53439;SDS011;39333;47.044;15.080;2022-07-12T01:15:25;56.85;;;54.15;;
53439;SDS011;39333;47.044;15.080;2022-07-12T01:17:53;57.97;;;55.38;;
53439;SDS011;39333;47.044;15.080;2022-07-12T01:20:23;54.70;;;52.10;;
53439;SDS011;39333;47.044;15.080;2022-07-12T01:22:53;58.10;;;55.22;;
53439;SDS011;39333;47.044;15.080;2022-07-12T01:25:22;59.05;;;56.40;;
53439;SDS011;39333;47.044;15.080;2022-07-12T01:27:49;52.83;;;50.33;;
53439;SDS011;39333;47.044;15.080;2022-07-12T01:30:17;56.45;;;53.75;;
53439;SDS011;39333;47.044;15.080;2022-07-12T01:32:43;61.80;;;58.83;;
53439;SDS011;39333;47.044;15.080;2022-07-12T01:35:11;58.38;;;55.88;;
53439;SDS011;39333;47.044;15.080;2022-07-12T01:37:42;55.40;;;52.90;;
53439;SDS011;39333;47.044;15.080;2022-07-12T01:40:11;53.40;;;50.90;;
53439;SDS011;39333;47.044;15.080;2022-07-12T01:42:39;57.63;;;55.13;;
53439;SDS011;39333;47.044;15.080;2022-07-12T01:45:07;57.58;;;55.03;;
53439;SDS011;39333;47.044;15.080;2022-07-12T01:47:34;58.10;;;55.70;;
53439;SDS011;39333;47.044;15.080;2022-07-12T01:50:04;59.15;;;56.10;;
53439;SDS011;39333;47.044;15.080;2022-07-12T01:52:33;55.15;;;52.65;;
53439;SDS011;39333;47.044;15.080;2022-07-12T01:55:01;54.85;;;52.35;;
53439;SDS011;39333;47.044;15.080;2022-07-12T01:57:28;57.63;;;54.97;;
53439;SDS011;39333;47.044;15.080;2022-07-12T01:59:55;51.90;;;49.40;;
53439;SDS011;39333;47.044;15.080;2022-07-12T02:02:24;58.65;;;56.15;;
53439;SDS011;39333;47.044;15.080;2022-07-12T02:04:53;59.38;;;56.58;;
53439;SDS011;39333;47.044;15.080;2022-07-12T02:07:22;55.67;;;53.17;;
53439;SDS011;39333;47.044;15.080;2022-07-12T02:09:50;57.63;;;54.92;;
53439;SDS011;39333;47.044;15.080;2022-07-12T02:12:17;57.95;;;55.45;;
53439;SDS011;39333;47.044;15.080;2022-07-12T02:14:43;58.55;;;55.85;;
53439;SDS011;39333;47.044;15.080;2022-07-12T02:17:10;53.55;;;50.92;;
53439;SDS011;39333;47.044;15.080;2022-07-12T02:19:37;58.95;;;56.28;;
53439;SDS011;39333;47.044;15.080;2022-07-12T02:22:03;56.33;;;53.47;;
53439;SDS011;39333;47.044;15.080;2022-07-12T02:24:30;55.22;;;52.63;;
53439;SDS011;39333;47.044;15.080;2022-07-12T02:26:57;58.90;;;55.90;;
53439;SDS011;39333;47.044;15.080;2022-07-12T02:29:24;60.03;;;57.33;;
53439;SDS011;39333;47.044;15.080;2022-07-12T02:31:50;56.85;;;54.35;;
53439;SDS011;39333;47.044;15.080;2022-07-12T02:34:17;60.75;;;57.80;;
53439;SDS011;39333;47.044;15.080;2022-07-12T02:36:44;59.25;;;56.58;;
53439;SDS011;39333;47.044;15.080;2022-07-12T02:39:10;62.90;;;60.10;;
53439;SDS011;39333;47.044;15.080;2022-07-12T02:41:37;61.50;;;58.70;;
53439;SDS011;39333;47.044;15.080;2022-07-12T02:44:04;60.78;;;58.08;;
53439;SDS011;39333;47.044;15.080;2022-07-12T02:46:31;59.97;;;57.53;;
53439;SDS011;39333;47.044;15.080;2022-07-12T02:48:58;59.10;;;56.47;;
53439;SDS011;39333;47.044;15.080;2022-07-12T02:51:25;59.42;;;56.63;;
53439;SDS011;39333;47.044;15.080;2022-07-12T02:53:51;55.55;;;53.05;;
53439;SDS011;39333;47.044;15.080;2022-07-12T02:56:18;57.38;;;54.88;;
53439;SDS011;39333;47.044;15.080;2022-07-12T02:58:46;57.67;;;55.08;;
53439;SDS011;39333;47.044;15.080;2022-07-12T03:01:12;56.60;;;53.70;;
53439;SDS011;39333;47.044;15.080;2022-07-12T03:03:40;57.78;;;55.17;;
53439;SDS011;39333;47.044;15.080;2022-07-12T03:06:07;57.47;;;54.70;;
53439;SDS011;39333;47.044;15.080;2022-07-12T03:08:34;56.53;;;53.92;;
53439;SDS011;39333;47.044;15.080;2022-07-12T03:11:01;61.17;;;58.10;;
53439;SDS011;39333;47.044;15.080;2022-07-12T03:13:28;55.70;;;53.10;;
53439;SDS011;39333;47.044;15.080;2022-07-12T03:15:54;58.63;;;55.78;;
53439;SDS011;39333;47.044;15.080;2022-07-12T03:18:21;53.75;;;51.05;;
53439;SDS011;39333;47.044;15.080;2022-07-12T03:20:48;54.30;;;51.83;;
53439;SDS011;39333;47.044;15.080;2022-07-12T03:23:15;53.05;;;50.67;;
53439;SDS011;39333;47.044;15.080;2022-07-12T03:25:42;55.60;;;53.20;;
53439;SDS011;39333;47.044;15.080;2022-07-12T03:28:09;58.13;;;55.33;;
53439;SDS011;39333;47.044;15.080;2022-07-12T03:30:36;52.53;;;50.13;;
53439;SDS011;39333;47.044;15.080;2022-07-12T03:33:03;53.85;;;51.42;;
53439;SDS011;39333;47.044;15.080;2022-07-12T03:35:30;56.55;;;53.78;;
53439;SDS011;39333;47.044;15.080;2022-07-12T03:37:57;54.53;;;52.00;;
53439;SDS011;39333;47.044;15.080;2022-07-12T03:40:23;51.22;;;48.80;;
53439;SDS011;39333;47.044;15.080;2022-07-12T03:42:51;59.67;;;56.75;;
53439;SDS011;39333;47.044;15.080;2022-07-12T03:45:19;58.83;;;55.75;;
53439;SDS011;39333;47.044;15.080;2022-07-12T03:47:45;55.00;;;52.63;;
53439;SDS011;39333;47.044;15.080;2022-07-12T03:50:14;53.80;;;51.13;;
53439;SDS011;39333;47.044;15.080;2022-07-12T03:52:41;52.17;;;49.67;;
53439;SDS011;39333;47.044;15.080;2022-07-12T03:55:10;60.05;;;57.05;;
53439;SDS011;39333;47.044;15.080;2022-07-12T03:57:38;57.40;;;54.88;;
53439;SDS011;39333;47.044;15.080;2022-07-12T04:00:05;54.65;;;52.17;;
53439;SDS011;39333;47.044;15.080;2022-07-12T04:02:39;48.63;;;46.38;;
53439;SDS011;39333;47.044;15.080;2022-07-12T04:05:07;53.05;;;50.40;;
53439;SDS011;39333;47.044;15.080;2022-07-12T04:07:35;52.50;;;50.10;;
53439;SDS011;39333;47.044;15.080;2022-07-12T04:10:02;55.92;;;53.33;;
53439;SDS011;39333;47.044;15.080;2022-07-12T04:12:30;52.53;;;49.92;;
53439;SDS011;39333;47.044;15.080;2022-07-12T04:14:57;60.35;;;57.28;;
53439;SDS011;39333;47.044;15.080;2022-07-12T04:17:24;58.70;;;55.75;;
53439;SDS011;39333;47.044;15.080;2022-07-12T04:19:51;58.30;;;55.47;;
53439;SDS011;39333;47.044;15.080;2022-07-12T04:22:18;57.90;;;55.17;;
53439;SDS011;39333;47.044;15.080;2022-07-12T04:24:45;59.08;;;56.38;;
53439;SDS011;39333;47.044;15.080;2022-07-12T04:27:12;56.72;;;53.90;;
53439;SDS011;39333;47.044;15.080;2022-07-12T04:29:38;59.67;;;56.80;;
53439;SDS011;39333;47.044;15.080;2022-07-12T04:32:05;52.17;;;49.67;;
53439;SDS011;39333;47.044;15.080;2022-07-12T04:34:32;59.25;;;56.25;;
53439;SDS011;39333;47.044;15.080;2022-07-12T04:36:59;52.53;;;49.97;;
53439;SDS011;39333;47.044;15.080;2022-07-12T04:39:26;53.65;;;51.10;;
53439;SDS011;39333;47.044;15.080;2022-07-12T04:41:53;54.38;;;51.75;;
53439;SDS011;39333;47.044;15.080;2022-07-12T04:44:20;55.25;;;52.45;;
53439;SDS011;39333;47.044;15.080;2022-07-12T04:46:47;55.22;;;52.75;;
53439;SDS011;39333;47.044;15.080;2022-07-12T04:49:13;54.80;;;52.22;;
53439;SDS011;39333;47.044;15.080;2022-07-12T04:51:40;55.90;;;53.33;;
53439;SDS011;39333;47.044;15.080;2022-07-12T04:54:07;56.55;;;53.80;;
53439;SDS011;39333;47.044;15.080;2022-07-12T04:56:34;57.67;;;54.78;;
53439;SDS011;39333;47.044;15.080;2022-07-12T04:59:01;51.25;;;48.80;;
53439;SDS011;39333;47.044;15.080;2022-07-12T05:01:28;55.33;;;52.72;;
53439;SDS011;39333;47.044;15.080;2022-07-12T05:03:56;54.60;;;52.00;;
53439;SDS011;39333;47.044;15.080;2022-07-12T05:06:23;50.47;;;47.97;;
53439;SDS011;39333;47.044;15.080;2022-07-12T05:08:49;50.92;;;48.75;;
53439;SDS011;39333;47.044;15.080;2022-07-12T05:11:16;56.60;;;54.10;;
53439;SDS011;39333;47.044;15.080;2022-07-12T05:13:44;53.65;;;50.83;;
53439;SDS011;39333;47.044;15.080;2022-07-12T05:16:11;52.40;;;49.85;;
53439;SDS011;39333;47.044;15.080;2022-07-12T05:18:37;51.88;;;49.28;;
53439;SDS011;39333;47.044;15.080;2022-07-12T05:21:04;51.05;;;48.65;;
53439;SDS011;39333;47.044;15.080;2022-07-12T05:23:31;55.50;;;52.53;;
53439;SDS011;39333;47.044;15.080;2022-07-12T05:25:58;54.72;;;51.92;;
53439;SDS011;39333;47.044;15.080;2022-07-12T05:28:25;53.92;;;51.35;;
53439;SDS011;39333;47.044;15.080;2022-07-12T05:30:52;53.50;;;50.72;;
53439;SDS011;39333;47.044;15.080;2022-07-12T05:33:19;55.78;;;53.15;;
53439;SDS011;39333;47.044;15.080;2022-07-12T05:35:47;57.63;;;54.90;;
53439;SDS011;39333;47.044;15.080;2022-07-12T05:38:14;57.38;;;54.55;;
53439;SDS011;39333;47.044;15.080;2022-07-12T05:40:40;56.75;;;54.17;;
53439;SDS011;39333;47.044;15.080;2022-07-12T05:43:07;55.50;;;52.90;;
53439;SDS011;39333;47.044;15.080;2022-07-12T05:45:34;52.58;;;49.70;;
53439;SDS011;39333;47.044;15.080;2022-07-12T05:48:01;50.90;;;48.40;;
53439;SDS011;39333;47.044;15.080;2022-07-12T05:50:29;52.20;;;49.75;;
53439;SDS011;39333;47.044;15.080;2022-07-12T05:52:56;52.22;;;49.72;;
53439;SDS011;39333;47.044;15.080;2022-07-12T05:55:41;53.55;;;50.95;;
53439;SDS011;39333;47.044;15.080;2022-07-12T05:58:07;50.22;;;48.03;;
53439;SDS011;39333;47.044;15.080;2022-07-12T06:00:35;51.83;;;49.33;;
53439;SDS011;39333;47.044;15.080;2022-07-12T06:03:05;55.15;;;52.17;;
53439;SDS011;39333;47.044;15.080;2022-07-12T06:05:32;51.85;;;49.25;;
53439;SDS011;39333;47.044;15.080;2022-07-12T06:07:58;53.08;;;50.45;;
53439;SDS011;39333;47.044;15.080;2022-07-12T06:10:26;52.20;;;49.90;;
53439;SDS011;39333;47.044;15.080;2022-07-12T06:12:52;56.17;;;53.38;;
53439;SDS011;39333;47.044;15.080;2022-07-12T06:15:20;54.53;;;51.65;;
53439;SDS011;39333;47.044;15.080;2022-07-12T06:17:47;55.80;;;53.30;;
53439;SDS011;39333;47.044;15.080;2022-07-12T06:20:15;54.58;;;51.85;;
53439;SDS011;39333;47.044;15.080;2022-07-12T06:22:41;54.35;;;51.95;;
53439;SDS011;39333;47.044;15.080;2022-07-12T06:25:08;53.13;;;50.72;;
53439;SDS011;39333;47.044;15.080;2022-07-12T06:27:55;51.15;;;48.90;;
53439;SDS011;39333;47.044;15.080;2022-07-12T06:30:22;54.25;;;51.45;;
53439;SDS011;39333;47.044;15.080;2022-07-12T06:32:48;52.65;;;50.45;;
53439;SDS011;39333;47.044;15.080;2022-07-12T06:35:16;53.90;;;51.50;;
53439;SDS011;39333;47.044;15.080;2022-07-12T06:37:43;51.42;;;49.03;;
53439;SDS011;39333;47.044;15.080;2022-07-12T06:40:11;52.92;;;50.53;;
53439;SDS011;39333;47.044;15.080;2022-07-12T06:42:38;54.13;;;51.72;;
53439;SDS011;39333;47.044;15.080;2022-07-12T06:45:05;53.97;;;51.47;;
53439;SDS011;39333;47.044;15.080;2022-07-12T06:47:32;55.33;;;52.75;;
53439;SDS011;39333;47.044;15.080;2022-07-12T06:49:59;54.58;;;52.08;;
53439;SDS011;39333;47.044;15.080;2022-07-12T06:52:26;59.30;;;56.45;;
53439;SDS011;39333;47.044;15.080;2022-07-12T06:54:57;56.72;;;53.95;;
53439;SDS011;39333;47.044;15.080;2022-07-12T06:57:24;52.13;;;49.92;;
53439;SDS011;39333;47.044;15.080;2022-07-12T06:59:53;55.58;;;53.15;;
53439;SDS011;39333;47.044;15.080;2022-07-12T07:02:21;56.78;;;54.13;;
53439;SDS011;39333;47.044;15.080;2022-07-12T07:04:48;52.30;;;49.92;;
53439;SDS011;39333;47.044;15.080;2022-07-12T07:07:15;53.22;;;50.92;;
53439;SDS011;39333;47.044;15.080;2022-07-12T07:09:42;52.95;;;50.33;;
53439;SDS011;39333;47.044;15.080;2022-07-12T07:12:09;51.85;;;49.55;;
53439;SDS011;39333;47.044;15.080;2022-07-12T07:14:36;55.05;;;52.70;;
53439;SDS011;39333;47.044;15.080;2022-07-12T07:17:03;56.45;;;53.75;;
53439;SDS011;39333;47.044;15.080;2022-07-12T07:19:30;51.42;;;49.22;;
53439;SDS011;39333;47.044;15.080;2022-07-12T07:21:57;53.40;;;51.05;;
53439;SDS011;39333;47.044;15.080;2022-07-12T07:24:25;52.53;;;49.92;;
53439;SDS011;39333;47.044;15.080;2022-07-12T07:26:52;53.63;;;51.22;;
53439;SDS011;39333;47.044;15.080;2022-07-12T07:29:24;54.53;;;51.67;;
53439;SDS011;39333;47.044;15.080;2022-07-12T07:32:10;54.08;;;51.30;;
53439;SDS011;39333;47.044;15.080;2022-07-12T07:34:37;56.17;;;53.25;;
53439;SDS011;39333;47.044;15.080;2022-07-12T07:37:04;51.30;;;48.88;;
53439;SDS011;39333;47.044;15.080;2022-07-12T07:39:31;52.85;;;50.25;;
53439;SDS011;39333;47.044;15.080;2022-07-12T07:41:58;50.03;;;47.65;;
53439;SDS011;39333;47.044;15.080;2022-07-12T07:44:25;52.70;;;49.88;;
53439;SDS011;39333;47.044;15.080;2022-07-12T07:46:59;52.30;;;49.83;;
53439;SDS011;39333;47.044;15.080;2022-07-12T07:49:26;53.63;;;50.92;;
53439;SDS011;39333;47.044;15.080;2022-07-12T07:51:53;55.35;;;52.65;;
53439;SDS011;39333;47.044;15.080;2022-07-12T07:54:19;54.78;;;52.22;;
53439;SDS011;39333;47.044;15.080;2022-07-12T07:56:49;52.80;;;50.05;;
53439;SDS011;39333;47.044;15.080;2022-07-12T07:59:16;50.65;;;47.72;;
53439;SDS011;39333;47.044;15.080;2022-07-12T08:01:43;53.90;;;51.08;;
53439;SDS011;39333;47.044;15.080;2022-07-12T08:04:12;55.67;;;53.03;;
53439;SDS011;39333;47.044;15.080;2022-07-12T08:06:39;51.00;;;48.40;;
53439;SDS011;39333;47.044;15.080;2022-07-12T08:09:07;50.55;;;48.03;;
53439;SDS011;39333;47.044;15.080;2022-07-12T08:11:39;54.47;;;51.97;;
53439;SDS011;39333;47.044;15.080;2022-07-12T08:14:09;52.58;;;50.28;;
53439;SDS011;39333;47.044;15.080;2022-07-12T08:16:36;52.25;;;49.95;;
53439;SDS011;39333;47.044;15.080;2022-07-12T08:19:04;51.45;;;49.13;;
53439;SDS011;39333;47.044;15.080;2022-07-12T08:21:31;54.35;;;51.75;;
53439;SDS011;39333;47.044;15.080;2022-07-12T08:23:58;53.75;;;51.33;;
53439;SDS011;39333;47.044;15.080;2022-07-12T08:26:25;53.92;;;51.33;;
53439;SDS011;39333;47.044;15.080;2022-07-12T08:28:52;51.28;;;49.15;;
53439;SDS011;39333;47.044;15.080;2022-07-12T08:31:19;50.38;;;48.25;;
53439;SDS011;39333;47.044;15.080;2022-07-12T08:33:45;54.00;;;51.55;;
53439;SDS011;39333;47.044;15.080;2022-07-12T08:36:12;50.55;;;48.25;;
53439;SDS011;39333;47.044;15.080;2022-07-12T08:38:39;54.08;;;51.67;;
53439;SDS011;39333;47.044;15.080;2022-07-12T08:41:13;50.92;;;48.47;;
53439;SDS011;39333;47.044;15.080;2022-07-12T08:43:40;53.13;;;50.83;;
53439;SDS011;39333;47.044;15.080;2022-07-12T08:46:09;52.28;;;49.78;;
53439;SDS011;39333;47.044;15.080;2022-07-12T08:48:38;55.17;;;52.60;;
53439;SDS011;39333;47.044;15.080;2022-07-12T08:51:06;53.35;;;50.85;;
53439;SDS011;39333;47.044;15.080;2022-07-12T08:53:38;52.85;;;50.50;;
53439;SDS011;39333;47.044;15.080;2022-07-12T08:56:06;52.38;;;50.17;;
53439;SDS011;39333;47.044;15.080;2022-07-12T08:58:33;54.55;;;52.08;;
53439;SDS011;39333;47.044;15.080;2022-07-12T09:01:01;50.78;;;48.47;;
53439;SDS011;39333;47.044;15.080;2022-07-12T09:03:27;50.22;;;47.83;;
53439;SDS011;39333;47.044;15.080;2022-07-12T09:05:55;52.50;;;49.80;;
53439;SDS011;39333;47.044;15.080;2022-07-12T09:08:30;51.85;;;49.42;;
53439;SDS011;39333;47.044;15.080;2022-07-12T09:11:00;52.05;;;49.78;;
53439;SDS011;39333;47.044;15.080;2022-07-12T09:16:23;51.00;;;48.67;;
53439;SDS011;39333;47.044;15.080;2022-07-12T09:18:51;50.92;;;48.33;;
53439;SDS011;39333;47.044;15.080;2022-07-12T09:21:37;53.67;;;51.38;;
53439;SDS011;39333;47.044;15.080;2022-07-12T09:24:13;48.50;;;46.30;;
53439;SDS011;39333;47.044;15.080;2022-07-12T09:26:40;47.38;;;45.30;;
53439;SDS011;39333;47.044;15.080;2022-07-12T09:29:08;51.67;;;49.28;;
53439;SDS011;39333;47.044;15.080;2022-07-12T09:31:39;51.53;;;49.22;;
53439;SDS011;39333;47.044;15.080;2022-07-12T09:34:07;50.40;;;48.13;;
53439;SDS011;39333;47.044;15.080;2022-07-12T09:36:55;54.33;;;51.88;;
53439;SDS011;39333;47.044;15.080;2022-07-12T09:39:23;55.03;;;52.42;;
53439;SDS011;39333;47.044;15.080;2022-07-12T09:41:52;52.65;;;49.95;;
53439;SDS011;39333;47.044;15.080;2022-07-12T09:44:20;52.65;;;50.15;;
53439;SDS011;39333;47.044;15.080;2022-07-12T09:46:47;52.70;;;50.40;;
53439;SDS011;39333;47.044;15.080;2022-07-12T09:49:15;55.00;;;52.63;;
53439;SDS011;39333;47.044;15.080;2022-07-12T09:51:51;50.78;;;48.05;;
53439;SDS011;39333;47.044;15.080;2022-07-12T09:54:26;54.30;;;51.90;;
53439;SDS011;39333;47.044;15.080;2022-07-12T09:57:01;53.78;;;51.38;;
53439;SDS011;39333;47.044;15.080;2022-07-12T09:59:29;51.53;;;49.10;;
53439;SDS011;39333;47.044;15.080;2022-07-12T10:02:01;53.60;;;51.30;;
53439;SDS011;39333;47.044;15.080;2022-07-12T10:04:32;54.47;;;51.97;;
53439;SDS011;39333;47.044;15.080;2022-07-12T10:06:59;55.92;;;53.22;;
53439;SDS011;39333;47.044;15.080;2022-07-12T10:09:27;51.17;;;48.80;;
53439;SDS011;39333;47.044;15.080;2022-07-12T10:11:54;53.35;;;50.97;;
53439;SDS011;39333;47.044;15.080;2022-07-12T10:14:26;51.55;;;49.10;;
53439;SDS011;39333;47.044;15.080;2022-07-12T10:16:53;52.10;;;49.70;;
53439;SDS011;39333;47.044;15.080;2022-07-12T10:21:54;51.45;;;49.15;;
53439;SDS011;39333;47.044;15.080;2022-07-12T10:29:41;49.83;;;47.65;;
53439;SDS011;39333;47.044;15.080;2022-07-12T10:32:25;52.80;;;50.40;;
53439;SDS011;39333;47.044;15.080;2022-07-12T10:35:03;55.05;;;52.55;;
53439;SDS011;39333;47.044;15.080;2022-07-12T10:37:34;51.63;;;49.22;;
53439;SDS011;39333;47.044;15.080;2022-07-12T10:45:37;48.75;;;46.58;;
53439;SDS011;39333;47.044;15.080;2022-07-12T10:48:06;52.50;;;50.08;;
53439;SDS011;39333;47.044;15.080;2022-07-12T10:58:55;51.08;;;48.78;;
53439;SDS011;39333;47.044;15.080;2022-07-12T11:01:24;51.58;;;49.28;;
53439;SDS011;39333;47.044;15.080;2022-07-12T11:04:06;45.70;;;43.65;;
53439;SDS011;39333;47.044;15.080;2022-07-12T11:06:36;51.97;;;49.58;;
53439;SDS011;39333;47.044;15.080;2022-07-12T11:09:11;52.28;;;49.90;;
53439;SDS011;39333;47.044;15.080;2022-07-12T11:11:45;51.47;;;49.17;;
53439;SDS011;39333;47.044;15.080;2022-07-12T11:14:28;54.00;;;51.60;;
53439;SDS011;39333;47.044;15.080;2022-07-12T11:16:58;50.88;;;48.50;;
53439;SDS011;39333;47.044;15.080;2022-07-12T11:19:27;53.45;;;51.05;;
53439;SDS011;39333;47.044;15.080;2022-07-12T11:21:56;50.40;;;48.20;;
53439;SDS011;39333;47.044;15.080;2022-07-12T11:24:29;51.78;;;49.38;;
53439;SDS011;39333;47.044;15.080;2022-07-12T11:26:57;51.50;;;49.10;;
53439;SDS011;39333;47.044;15.080;2022-07-12T11:29:27;51.78;;;49.47;;
53439;SDS011;39333;47.044;15.080;2022-07-12T11:32:01;52.70;;;50.30;;
53439;SDS011;39333;47.044;15.080;2022-07-12T11:34:36;52.25;;;49.88;;
53439;SDS011;39333;47.044;15.080;2022-07-12T11:37:03;53.05;;;50.67;;
53439;SDS011;39333;47.044;15.080;2022-07-12T11:39:31;55.25;;;52.85;;
53439;SDS011;39333;47.044;15.080;2022-07-12T11:41:58;52.65;;;50.35;;
53439;SDS011;39333;47.044;15.080;2022-07-12T11:44:45;51.95;;;49.50;;
53439;SDS011;39333;47.044;15.080;2022-07-12T11:47:12;55.92;;;53.42;;
53439;SDS011;39333;47.044;15.080;2022-07-12T11:49:50;55.10;;;52.80;;
53439;SDS011;39333;47.044;15.080;2022-07-12T11:52:19;51.83;;;49.55;;
53439;SDS011;39333;47.044;15.080;2022-07-12T11:54:48;52.35;;;49.95;;
53439;SDS011;39333;47.044;15.080;2022-07-12T11:57:21;52.20;;;49.83;;
53439;SDS011;39333;47.044;15.080;2022-07-12T11:59:48;51.63;;;49.20;;
53439;SDS011;39333;47.044;15.080;2022-07-12T12:02:16;51.08;;;48.88;;
53439;SDS011;39333;47.044;15.080;2022-07-12T12:04:48;52.88;;;50.45;;
53439;SDS011;39333;47.044;15.080;2022-07-12T12:07:19;51.28;;;49.08;;
53439;SDS011;39333;47.044;15.080;2022-07-12T12:09:58;48.63;;;46.53;;
53439;SDS011;39333;47.044;15.080;2022-07-12T12:12:25;50.70;;;48.60;;
53439;SDS011;39333;47.044;15.080;2022-07-12T12:14:52;51.55;;;49.20;;
53439;SDS011;39333;47.044;15.080;2022-07-12T12:17:18;52.20;;;50.00;;
53439;SDS011;39333;47.044;15.080;2022-07-12T12:19:45;49.42;;;47.22;;
53439;SDS011;39333;47.044;15.080;2022-07-12T12:25:16;50.05;;;47.90;;
53439;SDS011;39333;47.044;15.080;2022-07-12T12:28:03;51.22;;;49.03;;
53439;SDS011;39333;47.044;15.080;2022-07-12T12:30:53;50.63;;;48.40;;
53439;SDS011;39333;47.044;15.080;2022-07-12T12:33:35;51.58;;;49.38;;
53439;SDS011;39333;47.044;15.080;2022-07-12T12:36:37;48.38;;;46.28;;
53439;SDS011;39333;47.044;15.080;2022-07-12T12:39:03;50.80;;;48.70;;
53439;SDS011;39333;47.044;15.080;2022-07-12T12:41:38;49.10;;;47.10;;
53439;SDS011;39333;47.044;15.080;2022-07-12T12:44:10;52.13;;;49.72;;
53439;SDS011;39333;47.044;15.080;2022-07-12T12:49:49;51.17;;;48.97;;
53439;SDS011;39333;47.044;15.080;2022-07-12T12:52:22;50.05;;;47.88;;
53439;SDS011;39333;47.044;15.080;2022-07-12T12:54:54;49.47;;;47.38;;
53439;SDS011;39333;47.044;15.080;2022-07-12T12:57:22;48.45;;;46.25;;
53439;SDS011;39333;47.044;15.080;2022-07-12T12:59:52;50.63;;;48.33;;
53439;SDS011;39333;47.044;15.080;2022-07-12T13:02:19;49.08;;;46.97;;
53439;SDS011;39333;47.044;15.080;2022-07-12T13:04:49;49.30;;;47.10;;
53439;SDS011;39333;47.044;15.080;2022-07-12T13:07:16;48.58;;;46.38;;
53439;SDS011;39333;47.044;15.080;2022-07-12T13:09:43;49.15;;;47.05;;
53439;SDS011;39333;47.044;15.080;2022-07-12T13:12:09;49.40;;;47.30;;
53439;SDS011;39333;47.044;15.080;2022-07-12T13:14:36;49.50;;;47.40;;
53439;SDS011;39333;47.044;15.080;2022-07-12T13:17:04;50.78;;;48.63;;
53439;SDS011;39333;47.044;15.080;2022-07-12T13:19:31;48.70;;;46.67;;
53439;SDS011;39333;47.044;15.080;2022-07-12T13:21:59;45.92;;;44.00;;
53439;SDS011;39333;47.044;15.080;2022-07-12T13:24:26;50.78;;;48.58;;
53439;SDS011;39333;47.044;15.080;2022-07-12T13:26:53;47.25;;;45.25;;
53439;SDS011;39333;47.044;15.080;2022-07-12T13:29:20;47.58;;;45.58;;
53439;SDS011;39333;47.044;15.080;2022-07-12T13:31:46;47.80;;;45.70;;
53439;SDS011;39333;47.044;15.080;2022-07-12T13:34:21;48.33;;;46.33;;
53439;SDS011;39333;47.044;15.080;2022-07-12T13:36:48;50.67;;;48.35;;
53439;SDS011;39333;47.044;15.080;2022-07-12T13:39:15;49.42;;;47.22;;
53439;SDS011;39333;47.044;15.080;2022-07-12T13:42:00;51.35;;;49.08;;
53439;SDS011;39333;47.044;15.080;2022-07-12T13:44:27;48.25;;;46.22;;
53439;SDS011;39333;47.044;15.080;2022-07-12T13:46:54;50.78;;;48.67;;
53439;SDS011;39333;47.044;15.080;2022-07-12T13:49:22;50.10;;;47.90;;
53439;SDS011;39333;47.044;15.080;2022-07-12T13:51:49;49.63;;;47.53;;
53439;SDS011;39333;47.044;15.080;2022-07-12T13:54:15;49.75;;;47.65;;
53439;SDS011;39333;47.044;15.080;2022-07-12T13:56:42;52.95;;;50.83;;
53439;SDS011;39333;47.044;15.080;2022-07-12T13:59:09;50.83;;;48.63;;
53439;SDS011;39333;47.044;15.080;2022-07-12T14:01:37;46.60;;;44.60;;
53439;SDS011;39333;47.044;15.080;2022-07-12T14:04:04;50.42;;;48.30;;
53439;SDS011;39333;47.044;15.080;2022-07-12T14:06:30;48.90;;;46.67;;
53439;SDS011;39333;47.044;15.080;2022-07-12T14:08:57;51.03;;;48.83;;
53439;SDS011;39333;47.044;15.080;2022-07-12T14:11:24;51.67;;;49.38;;
53439;SDS011;39333;47.044;15.080;2022-07-12T14:13:51;53.88;;;51.38;;
53439;SDS011;39333;47.044;15.080;2022-07-12T14:16:18;49.22;;;47.13;;
53439;SDS011;39333;47.044;15.080;2022-07-12T14:18:45;49.17;;;47.05;;
53439;SDS011;39333;47.044;15.080;2022-07-12T14:21:12;52.33;;;49.75;;
53439;SDS011;39333;47.044;15.080;2022-07-12T14:23:39;54.60;;;52.00;;
53439;SDS011;39333;47.044;15.080;2022-07-12T14:26:07;53.58;;;50.83;;
53439;SDS011;39333;47.044;15.080;2022-07-12T14:28:33;51.83;;;49.33;;
53439;SDS011;39333;47.044;15.080;2022-07-12T14:31:00;51.38;;;48.58;;
53439;SDS011;39333;47.044;15.080;2022-07-12T14:33:30;51.78;;;49.17;;
53439;SDS011;39333;47.044;15.080;2022-07-12T14:35:57;51.13;;;48.83;;
53439;SDS011;39333;47.044;15.080;2022-07-12T14:38:24;50.20;;;47.90;;
53439;SDS011;39333;47.044;15.080;2022-07-12T14:40:51;51.90;;;49.58;;
53439;SDS011;39333;47.044;15.080;2022-07-12T14:43:17;51.63;;;49.13;;
53439;SDS011;39333;47.044;15.080;2022-07-12T14:45:47;54.85;;;52.30;;
53439;SDS011;39333;47.044;15.080;2022-07-12T14:48:13;50.47;;;48.28;;